Time;durP1;ratioP1;P1;durP2;ratioP2;P2;SDS_P1;SDS_P2;PMS_P1;PMS_P2;Temp;Humidity;BMP_temperature;BMP_pressure;BME280_temperature;BME280_humidity;BME280_pressure;Samples;Min_cycle;Max_cycle;Signal;HPM_P1;HPM_P2
2024/04/01 00:01:34;;;;;;;;;;;19.60;40.10;;;;;;8356313;28;19909;-56
2024/04/01 00:05:34;;;;;;;;;;;19.40;41.20;;;;;;8356561;28;20091;-56
2024/04/01 00:09:35;;;;;;;;;;;19.40;41.30;;;;;;8356755;28;19916;-56
2024/04/01 00:13:35;;;;;;;;;;;19.50;40.80;;;;;;8356405;27;20415;-55
2024/04/01 00:17:36;;;;;;;;;;;19.50;40.30;;;;;;8356050;28;19921;-56
2024/04/01 00:21:37;;;;;;;;;;;19.60;40.10;;;;;;8356434;28;19913;-55
2024/04/01 00:25:37;;;;;;;;;;;19.60;40.00;;;;;;8356260;28;20049;-56
2024/04/01 00:29:38;;;;;;;;;;;19.70;39.80;;;;;;8356118;28;19917;-55
2024/04/01 00:33:38;;;;;;;;;;;19.70;39.80;;;;;;8356049;28;20378;-55
2024/04/01 00:37:39;;;;;;;;;;;19.70;39.60;;;;;;8355968;28;19917;-55
2024/04/01 00:41:39;;;;;;;;;;;19.60;39.60;;;;;;8355866;27;20902;-55
2024/04/01 00:45:44;;;;;;;;;;;19.60;39.60;;;;;;8355513;28;19913;-55
2024/04/01 00:49:45;;;;;;;;;;;19.60;40.00;;;;;;8355450;28;19920;-56
2024/04/01 00:53:46;;;;;;;;;;;19.40;41.10;;;;;;8355766;28;19917;-55
2024/04/01 00:57:46;;;;;;;;;;;19.40;41.00;;;;;;8355424;28;20251;-55
2024/04/01 01:01:47;;;;;;;;;;;19.50;40.50;;;;;;8355412;28;19958;-55
2024/04/01 01:05:47;;;;;;;;;;;19.50;40.20;;;;;;8355400;28;20378;-54
2024/04/01 01:09:48;;;;;;;;;;;19.60;40.00;;;;;;8355211;28;19925;-55
2024/04/01 01:13:49;;;;;;;;;;;19.60;39.80;;;;;;8358719;28;19913;-55
2024/04/01 01:17:50;;;;;;;;;;;19.60;39.70;;;;;;8360867;28;19931;-55
2024/04/01 01:22:00;;;;;;;;;;;19.60;39.60;;;;;;8360751;28;19913;-55
2024/04/01 01:26:01;;;;;;;;;;;19.60;39.50;;;;;;8360838;28;19909;-55
2024/04/01 01:30:03;;;;;;;;;;;19.60;39.50;;;;;;8360686;28;19971;-54
2024/04/01 01:34:04;;;;;;;;;;;19.60;39.40;;;;;;8360491;28;19909;-54
2024/04/01 01:38:04;;;;;;;;;;;19.60;40.10;;;;;;8360916;28;19920;-53
2024/04/01 01:42:05;;;;;;;;;;;19.30;41.00;;;;;;8360487;27;19965;-53
2024/04/01 01:46:05;;;;;;;;;;;19.30;40.90;;;;;;8359937;28;20404;-55
2024/04/01 01:50:07;;;;;;;;;;;19.40;40.40;;;;;;8360393;28;20015;-53
2024/04/01 01:54:07;;;;;;;;;;;19.50;40.10;;;;;;8359972;28;20308;-53
2024/04/01 01:58:08;;;;;;;;;;;19.50;39.90;;;;;;8360025;28;20361;-53
2024/04/01 02:02:08;;;;;;;;;;;19.60;40.30;;;;;;8360207;28;20373;-53
2024/04/01 02:06:09;;;;;;;;;;;19.60;39.60;;;;;;8359783;28;19909;-54
2024/04/01 02:10:10;;;;;;;;;;;19.60;39.60;;;;;;8359594;28;19983;-53
2024/04/01 02:14:10;;;;;;;;;;;19.60;39.40;;;;;;8358174;27;19921;-53
2024/04/01 02:18:11;;;;;;;;;;;19.60;39.40;;;;;;8359222;27;20419;-52
2024/04/01 02:22:12;;;;;;;;;;;19.60;39.30;;;;;;8359553;28;20315;-53
2024/04/01 02:26:13;;;;;;;;;;;19.50;40.20;;;;;;8341340;28;19908;-54
2024/04/01 02:30:13;;;;;;;;;;;19.40;41.00;;;;;;8359004;28;19967;-53
2024/04/01 02:34:14;;;;;;;;;;;19.30;40.80;;;;;;8359077;28;20008;-51
2024/04/01 02:38:14;;;;;;;;;;;19.40;40.30;;;;;;8359004;28;19912;-54
2024/04/01 02:42:15;;;;;;;;;;;19.50;40.00;;;;;;8359357;27;19916;-54
2024/04/01 02:46:15;;;;;;;;;;;19.50;39.70;;;;;;8358707;28;20431;-55
2024/04/01 02:50:16;;;;;;;;;;;19.50;39.60;;;;;;8358546;28;19920;-55
2024/04/01 02:54:17;;;;;;;;;;;19.60;39.50;;;;;;8341064;28;19920;-55
2024/04/01 02:58:17;;;;;;;;;;;19.60;39.50;;;;;;8358410;28;20305;-54
2024/04/01 03:02:18;;;;;;;;;;;19.60;39.30;;;;;;8358211;28;19920;-54
2024/04/01 03:06:18;;;;;;;;;;;19.60;39.30;;;;;;8358498;28;20049;-54
2024/04/01 03:10:19;;;;;;;;;;;19.60;39.20;;;;;;8358100;28;19917;-55
2024/04/01 03:14:20;;;;;;;;;;;19.50;40.20;;;;;;8359642;27;19913;-54
2024/04/01 03:18:21;;;;;;;;;;;19.30;41.00;;;;;;8357835;27;20274;-55
2024/04/01 03:22:22;;;;;;;;;;;19.30;40.60;;;;;;8357804;28;19915;-54
2024/04/01 03:26:22;;;;;;;;;;;19.40;40.20;;;;;;8357951;28;19996;-55
2024/04/01 03:30:23;;;;;;;;;;;19.50;40.00;;;;;;8357260;28;19917;-55
2024/04/01 03:34:23;;;;;;;;;;;19.50;39.70;;;;;;8338780;28;20282;-55
2024/04/01 03:38:24;;;;;;;;;;;19.50;39.60;;;;;;8357382;28;19909;-55
2024/04/01 03:42:25;;;;;;;;;;;19.50;39.50;;;;;;8357229;28;20063;-56
2024/04/01 03:46:25;;;;;;;;;;;19.50;39.30;;;;;;8357050;28;19917;-55
2024/04/01 03:50:26;;;;;;;;;;;19.60;39.30;;;;;;8357134;28;19962;-56
2024/04/01 03:54:26;;;;;;;;;;;19.60;39.20;;;;;;8357150;28;19957;-55
2024/04/01 03:58:27;;;;;;;;;;;19.60;39.20;;;;;;8356697;28;20432;-55
2024/04/01 04:02:27;;;;;;;;;;;19.50;40.20;;;;;;8356831;28;20521;-55
2024/04/01 04:06:28;;;;;;;;;;;19.30;41.00;;;;;;8356911;28;19913;-56
2024/04/01 04:10:29;;;;;;;;;;;19.30;40.50;;;;;;8356287;28;19920;-55
2024/04/01 04:14:30;;;;;;;;;;;19.40;40.10;;;;;;8356393;27;20003;-55
2024/04/01 04:18:31;;;;;;;;;;;19.40;39.80;;;;;;8356429;28;20017;-56
2024/04/01 04:22:33;;;;;;;;;;;19.50;39.60;;;;;;8356239;28;19909;-56
2024/04/01 04:26:33;;;;;;;;;;;19.60;39.50;;;;;;8356153;28;19913;-56
2024/04/01 04:30:34;;;;;;;;;;;19.60;39.20;;;;;;8356193;28;19921;-54
2024/04/01 04:34:34;;;;;;;;;;;19.70;39.10;;;;;;8356091;28;19918;-56
2024/04/01 04:38:35;;;;;;;;;;;19.70;38.90;;;;;;8355900;28;20562;-55
2024/04/01 04:42:36;;;;;;;;;;;19.70;38.80;;;;;;8356026;28;19920;-56
2024/04/01 04:46:36;;;;;;;;;;;19.70;38.70;;;;;;8355620;28;20358;-54
2024/04/01 04:50:37;;;;;;;;;;;19.60;39.90;;;;;;8355738;28;19917;-54
2024/04/01 04:54:37;;;;;;;;;;;19.50;40.50;;;;;;8355527;28;19913;-56
2024/04/01 04:58:39;;;;;;;;;;;19.50;40.10;;;;;;8355644;28;19960;-55
2024/04/01 05:02:40;;;;;;;;;;;19.50;39.60;;;;;;8355527;28;19920;-55
2024/04/01 05:06:42;;;;;;;;;;;19.60;39.30;;;;;;8355529;28;19913;-55
2024/04/01 05:10:44;;;;;;;;;;;19.70;39.10;;;;;;8355061;28;20445;-55
2024/04/01 05:14:45;;;;;;;;;;;19.70;39.00;;;;;;8355892;27;19913;-57
2024/04/01 05:18:48;;;;;;;;;;;19.70;38.80;;;;;;8355030;27;19936;-56
2024/04/01 05:22:49;;;;;;;;;;;19.70;38.70;;;;;;8354874;28;20546;-56
2024/04/01 05:26:49;;;;;;;;;;;19.70;38.70;;;;;;8355236;28;19913;-55
2024/04/01 05:30:53;;;;;;;;;;;19.80;38.60;;;;;;8354578;28;19966;-55
2024/04/01 05:34:54;;;;;;;;;;;19.80;38.60;;;;;;8354879;28;19920;-54
2024/04/01 05:38:54;;;;;;;;;;;19.60;39.80;;;;;;8354772;28;19913;-56
2024/04/01 05:42:55;;;;;;;;;;;19.50;40.40;;;;;;8354633;27;20310;-56
2024/04/01 05:46:56;;;;;;;;;;;19.60;39.80;;;;;;8354776;28;19921;-55
2024/04/01 05:50:56;;;;;;;;;;;19.60;39.40;;;;;;8354459;28;19924;-56
2024/04/01 05:54:57;;;;;;;;;;;19.60;39.20;;;;;;8354504;28;19912;-55
2024/04/01 05:58:58;;;;;;;;;;;19.70;39.50;;;;;;8356455;28;19948;-57
2024/04/01 06:02:58;;;;;;;;;;;19.70;38.80;;;;;;8359965;28;19909;-57
2024/04/01 06:06:59;;;;;;;;;;;19.80;38.70;;;;;;8359727;28;19965;-56
2024/04/01 06:11:02;;;;;;;;;;;19.70;38.60;;;;;;8359999;28;19917;-53
2024/04/01 06:15:03;;;;;;;;;;;19.80;38.50;;;;;;8359748;27;20003;-52
2024/04/01 06:19:04;;;;;;;;;;;19.80;38.50;;;;;;8359334;27;19924;-52
2024/04/01 06:23:09;;;;;;;;;;;19.80;38.50;;;;;;8359327;28;19919;-54
2024/04/01 06:27:10;;;;;;;;;;;19.70;39.70;;;;;;8359434;28;19912;-53
2024/04/01 06:31:11;;;;;;;;;;;19.50;40.30;;;;;;8359257;28;20011;-54
2024/04/01 06:35:11;;;;;;;;;;;19.50;39.70;;;;;;8359193;28;20355;-54
2024/04/01 06:39:13;;;;;;;;;;;19.60;39.30;;;;;;8359091;28;20384;-54
2024/04/01 06:43:14;;;;;;;;;;;19.70;39.10;;;;;;8358715;28;19913;-53
2024/04/01 06:47:14;;;;;;;;;;;19.70;38.90;;;;;;8358945;28;19909;-53
2024/04/01 06:51:15;;;;;;;;;;;19.80;38.80;;;;;;8358627;28;19917;-54
2024/04/01 06:55:15;;;;;;;;;;;19.80;38.60;;;;;;8358586;28;19917;-52
2024/04/01 06:59:16;;;;;;;;;;;19.80;38.50;;;;;;8358435;28;20365;-52
2024/04/01 07:03:16;;;;;;;;;;;19.80;38.40;;;;;;8358254;28;19964;-52
2024/04/01 07:07:18;;;;;;;;;;;19.80;38.40;;;;;;8358329;28;20266;-54
2024/04/01 07:11:19;;;;;;;;;;;19.80;38.60;;;;;;8357954;28;19913;-53
2024/04/01 07:15:20;;;;;;;;;;;19.60;39.80;;;;;;8358087;27;20020;-53
2024/04/01 07:19:21;;;;;;;;;;;19.50;40.00;;;;;;8358078;27;19928;-53
2024/04/01 07:23:21;;;;;;;;;;;19.60;39.60;;;;;;8357957;28;19919;-55
2024/04/01 07:27:22;;;;;;;;;;;19.70;39.30;;;;;;8358353;28;19919;-54
2024/04/01 07:31:22;;;;;;;;;;;19.70;39.00;;;;;;8357760;28;20289;-54
2024/04/01 07:35:23;;;;;;;;;;;19.70;38.80;;;;;;8357457;28;19958;-54
2024/04/01 07:39:24;;;;;;;;;;;19.70;38.70;;;;;;8357720;28;19931;-55
2024/04/01 07:43:25;;;;;;;;;;;19.80;38.60;;;;;;8357231;27;19919;-56
2024/04/01 07:47:25;;;;;;;;;;;19.80;38.50;;;;;;8357056;28;20331;-56
2024/04/01 07:51:26;;;;;;;;;;;19.80;38.50;;;;;;8357246;28;19924;-56
2024/04/01 07:55:27;;;;;;;;;;;19.80;38.40;;;;;;8357052;28;19916;-56
2024/04/01 07:59:27;;;;;;;;;;;19.70;38.90;;;;;;8356763;28;19913;-56
2024/04/01 08:03:28;;;;;;;;;;;19.50;40.00;;;;;;8356880;28;19913;-55
2024/04/01 08:07:29;;;;;;;;;;;19.40;40.20;;;;;;8356628;28;19913;-55
2024/04/01 08:11:29;;;;;;;;;;;19.50;39.60;;;;;;8356689;27;20568;-56
2024/04/01 08:15:30;;;;;;;;;;;19.60;39.30;;;;;;8357276;27;19917;-55
2024/04/01 08:19:31;;;;;;;;;;;19.60;39.00;;;;;;8356249;27;19925;-56
2024/04/01 08:23:31;;;;;;;;;;;19.60;38.80;;;;;;8356219;28;19973;-55
2024/04/01 08:27:32;;;;;;;;;;;19.70;38.80;;;;;;8338178;28;19913;-56
2024/04/01 08:31:33;;;;;;;;;;;19.70;38.60;;;;;;8356293;28;19913;-53
2024/04/01 08:35:34;;;;;;;;;;;19.70;38.60;;;;;;8355968;28;19959;-53
2024/04/01 08:39:35;;;;;;;;;;;19.70;38.40;;;;;;8338100;28;19913;-53
2024/04/01 08:43:38;;;;;;;;;;;19.70;38.40;;;;;;8355569;27;19917;-53
2024/04/01 08:47:42;;;;;;;;;;;19.70;39.00;;;;;;8355860;28;19909;-54
2024/04/01 08:51:43;;;;;;;;;;;19.50;40.00;;;;;;8355864;28;19999;-53
2024/04/01 08:55:43;;;;;;;;;;;19.50;40.00;;;;;;8355520;28;20481;-54
2024/04/01 08:59:45;;;;;;;;;;;19.60;39.50;;;;;;8355546;28;19909;-54
2024/04/01 09:03:47;;;;;;;;;;;19.60;39.10;;;;;;8355237;28;19965;-54
2024/04/01 09:07:48;;;;;;;;;;;19.70;38.90;;;;;;8355261;28;19927;-54
2024/04/01 09:11:49;;;;;;;;;;;19.70;38.70;;;;;;8355384;27;19913;-53
2024/04/01 09:15:50;;;;;;;;;;;19.70;38.60;;;;;;8355537;28;19944;-53
2024/04/01 09:19:51;;;;;;;;;;;19.60;38.50;;;;;;8355263;28;19928;-52
2024/04/01 09:23:53;;;;;;;;;;;19.70;38.40;;;;;;8355048;28;19953;-52
2024/04/01 09:27:53;;;;;;;;;;;19.70;38.40;;;;;;8354737;28;19909;-54
2024/04/01 09:31:54;;;;;;;;;;;19.70;38.30;;;;;;8355108;28;19965;-52
2024/04/01 09:35:54;;;;;;;;;;;19.60;39.20;;;;;;8359871;28;20389;-52
2024/04/01 09:39:55;;;;;;;;;;;19.50;40.00;;;;;;8360645;28;19920;-53
2024/04/01 09:43:57;;;;;;;;;;;19.50;40.00;;;;;;8360317;27;20384;-55
2024/04/01 09:47:58;;;;;;;;;;;19.60;39.50;;;;;;8360020;28;19913;-56
2024/04/01 09:51:59;;;;;;;;;;;19.60;39.00;;;;;;8360279;28;20391;-56
2024/04/01 09:56:00;;;;;;;;;;;19.70;38.90;;;;;;8360492;28;19909;-56
2024/04/01 10:00:16;;;;;;;;;;;19.70;38.60;;;;;;8359882;28;19924;-55
2024/04/01 10:04:17;;;;;;;;;;;19.70;38.50;;;;;;8359973;28;19917;-56
2024/04/01 10:08:17;;;;;;;;;;;19.70;38.40;;;;;;8359948;28;19927;-54
2024/04/01 10:12:36;;;;;;;;;;;19.80;38.60;;;;;;8359871;27;20320;-55
2024/04/01 10:16:56;;;;;;;;;;;19.70;38.20;;;;;;8359675;28;20557;-55
2024/04/01 10:21:15;;;;;;;;;;;19.80;38.10;;;;;;8359409;28;19946;-55
2024/04/01 10:25:21;;;;;;;;;;;19.60;39.20;;;;;;8359447;28;19915;-54
2024/04/01 10:29:40;;;;;;;;;;;19.50;40.00;;;;;;8359219;28;19913;-55
2024/04/01 10:33:43;;;;;;;;;;;19.50;39.50;;;;;;8359236;28;19995;-55
2024/04/01 10:37:47;;;;;;;;;;;19.60;39.10;;;;;;8359250;28;20358;-55
2024/04/01 10:42:06;;;;;;;;;;;19.70;38.90;;;;;;8359153;27;19909;-56
2024/04/01 10:46:45;;;;;;;;;;;19.70;38.70;;;;;;8358409;28;20362;-56
2024/04/01 10:51:14;;;;;;;;;;;19.70;38.50;;;;;;8376118;28;19912;-55
2024/04/01 10:55:24;;;;;;;;;;;19.70;38.30;;;;;;8321747;28;19931;-55
2024/04/01 10:59:43;;;;;;;;;;;19.80;38.30;;;;;;8358577;28;19917;-55
2024/04/01 11:03:53;;;;;;;;;;;19.70;38.10;;;;;;8358461;28;19909;-55
2024/04/01 11:08:14;;;;;;;;;;;19.80;38.10;;;;;;8358841;28;19916;-54
2024/04/01 11:12:21;;;;;;;;;;;19.70;38.90;;;;;;8358209;27;19909;-53
2024/04/01 11:16:22;;;;;;;;;;;19.50;39.80;;;;;;8358189;28;19940;-56
2024/04/01 11:20:32;;;;;;;;;;;19.50;39.60;;;;;;8357724;28;20441;-54
2024/04/01 11:25:05;;;;;;;;;;;19.60;39.20;;;;;;8357958;28;20289;-54
2024/04/01 11:29:11;;;;;;;;;;;19.70;38.90;;;;;;8368817;28;19968;-56
2024/04/01 11:33:15;;;;;;;;;;;19.70;38.70;;;;;;8357703;28;19915;-54
2024/04/01 11:37:21;;;;;;;;;;;19.60;38.50;;;;;;8357676;28;19916;-54
2024/04/01 11:41:22;;;;;;;;;;;19.60;38.40;;;;;;8358688;27;20389;-54
2024/04/01 11:45:26;;;;;;;;;;;19.70;38.30;;;;;;8324223;28;20394;-54
2024/04/01 11:49:37;;;;;;;;;;;19.70;38.30;;;;;;8324347;28;19917;-55
2024/04/01 11:53:41;;;;;;;;;;;19.70;38.10;;;;;;8324291;28;19909;-55
2024/04/01 11:57:41;;;;;;;;;;;19.70;38.00;;;;;;8323196;28;20402;-55
2024/04/01 12:01:42;;;;;;;;;;;19.60;39.50;;;;;;8324427;28;20599;-55
2024/04/01 12:05:47;;;;;;;;;;;19.50;39.90;;;;;;8323927;28;19949;-57
2024/04/01 12:09:47;;;;;;;;;;;19.60;39.30;;;;;;8323697;28;19913;-57
2024/04/01 12:13:48;;;;;;;;;;;19.60;39.00;;;;;;8344008;27;19913;-56
2024/04/01 12:17:49;;;;;;;;;;;19.70;38.70;;;;;;8356409;27;20366;-56
2024/04/01 12:21:50;;;;;;;;;;;19.70;38.60;;;;;;8356456;28;19913;-57
2024/04/01 12:25:51;;;;;;;;;;;19.70;38.40;;;;;;8356368;28;19917;-56
2024/04/01 12:29:52;;;;;;;;;;;19.80;38.30;;;;;;8356658;28;19912;-56
2024/04/01 12:33:52;;;;;;;;;;;19.70;38.20;;;;;;8356717;28;19936;-56
2024/04/01 12:37:54;;;;;;;;;;;19.70;38.10;;;;;;8356062;28;19997;-56
2024/04/01 12:41:56;;;;;;;;;;;19.70;38.10;;;;;;8355956;27;19966;-56
2024/04/01 12:45:57;;;;;;;;;;;19.70;38.30;;;;;;8355799;28;19942;-56
2024/04/01 12:50:01;;;;;;;;;;;19.60;39.60;;;;;;8355823;28;19916;-57
2024/04/01 12:54:13;;;;;;;;;;;19.50;39.90;;;;;;8355851;28;19916;-56
2024/04/01 12:58:16;;;;;;;;;;;19.60;39.40;;;;;;8355527;28;20365;-55
2024/04/01 13:02:37;;;;;;;;;;;19.60;39.00;;;;;;8355738;28;19920;-56
2024/04/01 13:06:48;;;;;;;;;;;19.60;38.60;;;;;;8337677;28;19909;-56
2024/04/01 13:10:58;;;;;;;;;;;19.70;38.50;;;;;;8355203;28;20281;-56
2024/04/01 13:15:07;;;;;;;;;;;19.70;38.40;;;;;;8355222;27;19909;-55
2024/04/01 13:19:27;;;;;;;;;;;19.70;38.30;;;;;;8355065;28;19921;-56
2024/04/01 13:23:48;;;;;;;;;;;19.70;38.10;;;;;;8355021;28;19913;-56
2024/04/01 13:27:51;;;;;;;;;;;19.70;38.10;;;;;;8354711;28;19924;-55
2024/04/01 13:31:52;;;;;;;;;;;19.70;38.00;;;;;;8354970;28;19908;-55
2024/04/01 13:35:58;;;;;;;;;;;19.60;39.10;;;;;;8354755;28;19909;-55
2024/04/01 13:39:59;;;;;;;;;;;19.50;39.90;;;;;;8354734;28;20007;-55
2024/04/01 13:43:59;;;;;;;;;;;19.40;39.50;;;;;;8354556;27;19924;-54
2024/04/01 13:48:09;;;;;;;;;;;19.60;39.10;;;;;;8354486;28;20037;-55
2024/04/01 13:52:25;;;;;;;;;;;19.60;38.80;;;;;;8354710;28;19909;-55
2024/04/01 13:56:28;;;;;;;;;;;19.60;38.50;;;;;;8354445;28;19909;-54
2024/04/01 14:00:34;;;;;;;;;;;19.70;38.40;;;;;;8354480;28;19915;-56
2024/04/01 14:05:02;;;;;;;;;;;19.70;38.30;;;;;;8354176;28;19948;-54
2024/04/01 14:09:06;;;;;;;;;;;19.70;38.20;;;;;;8354061;28;19913;-55
2024/04/01 14:13:21;;;;;;;;;;;19.70;38.10;;;;;;8353885;27;20205;-55
2024/04/01 14:17:38;;;;;;;;;;;19.70;38.00;;;;;;8354051;28;19922;-55
2024/04/01 14:21:39;;;;;;;;;;;19.70;38.20;;;;;;8358579;28;19914;-55
2024/04/01 14:25:43;;;;;;;;;;;19.60;39.40;;;;;;8359603;28;19953;-55
2024/04/01 14:29:44;;;;;;;;;;;19.50;39.80;;;;;;8359478;28;19916;-54
2024/04/01 14:33:45;;;;;;;;;;;19.50;39.20;;;;;;8359276;28;19958;-54
2024/04/01 14:37:45;;;;;;;;;;;19.60;38.90;;;;;;8359481;27;19919;-53
2024/04/01 14:41:46;;;;;;;;;;;19.60;38.60;;;;;;8359129;27;20309;-55
2024/04/01 14:45:46;;;;;;;;;;;19.60;38.40;;;;;;8358928;27;19916;-53
2024/04/01 14:49:47;;;;;;;;;;;19.70;38.30;;;;;;8358795;28;19924;-54
2024/04/01 14:53:48;;;;;;;;;;;19.70;38.20;;;;;;8358731;28;19913;-53
2024/04/01 14:57:49;;;;;;;;;;;19.70;38.10;;;;;;8358915;28;20289;-55
2024/04/01 15:01:50;;;;;;;;;;;19.70;38.00;;;;;;8358859;28;19935;-55
2024/04/01 15:05:50;;;;;;;;;;;19.70;37.90;;;;;;8358444;28;19917;-54
2024/04/01 15:09:51;;;;;;;;;;;19.70;38.40;;;;;;8358606;28;19939;-55
2024/04/01 15:13:52;;;;;;;;;;;19.50;39.50;;;;;;8324062;28;20427;-55
2024/04/01 15:17:52;;;;;;;;;;;19.40;39.70;;;;;;8325352;28;20017;-54
2024/04/01 15:21:54;;;;;;;;;;;19.50;39.20;;;;;;8326025;28;20335;-54
2024/04/01 15:25:55;;;;;;;;;;;19.60;38.90;;;;;;8307315;28;19909;-55
2024/04/01 15:29:56;;;;;;;;;;;19.60;38.60;;;;;;8324206;28;19921;-55
2024/04/01 15:33:58;;;;;;;;;;;19.70;38.40;;;;;;8324403;28;20009;-56
2024/04/01 15:37:59;;;;;;;;;;;19.70;38.30;;;;;;8324486;28;19951;-55
2024/04/01 15:42:00;;;;;;;;;;;19.70;38.20;;;;;;8330485;27;20385;-56
2024/04/01 15:46:01;;;;;;;;;;;19.70;38.10;;;;;;8357479;28;20437;-57
2024/04/01 15:50:02;;;;;;;;;;;19.70;38.00;;;;;;8339327;28;20345;-56
2024/04/01 15:54:03;;;;;;;;;;;19.70;37.90;;;;;;8357685;28;20384;-56
2024/04/01 15:58:05;;;;;;;;;;;19.70;38.50;;;;;;8357195;28;19957;-55
2024/04/01 16:02:06;;;;;;;;;;;19.50;39.50;;;;;;8356889;28;19928;-54
2024/04/01 16:06:07;;;;;;;;;;;19.40;39.60;;;;;;8356864;28;20652;-57
2024/04/01 16:10:07;;;;;;;;;;;19.50;39.20;;;;;;8356467;28;19917;-55
2024/04/01 16:14:13;;;;;;;;;;;19.60;38.80;;;;;;8356517;28;20373;-57
2024/04/01 16:18:19;;;;;;;;;;;19.60;38.50;;;;;;8356356;27;19958;-55
2024/04/01 16:22:21;;;;;;;;;;;19.70;38.40;;;;;;8339022;28;19909;-54
2024/04/01 16:26:24;;;;;;;;;;;19.70;38.20;;;;;;8356844;28;19932;-54
2024/04/01 16:30:26;;;;;;;;;;;19.70;38.10;;;;;;8356259;28;20492;-56
2024/04/01 16:34:28;;;;;;;;;;;19.70;38.00;;;;;;8356128;28;19960;-56
2024/04/01 16:38:29;;;;;;;;;;;19.70;38.00;;;;;;8356259;28;19909;-56
2024/04/01 16:42:32;;;;;;;;;;;19.70;37.90;;;;;;8355576;27;19923;-55
2024/04/01 16:46:34;;;;;;;;;;;19.60;38.70;;;;;;8338034;28;19913;-54
2024/04/01 16:50:35;;;;;;;;;;;19.40;39.70;;;;;;8355918;28;19912;-55
2024/04/01 16:54:36;;;;;;;;;;;19.40;39.60;;;;;;8355590;28;20294;-54
2024/04/01 16:58:37;;;;;;;;;;;19.50;39.10;;;;;;8355524;28;19948;-55
2024/04/01 17:02:38;;;;;;;;;;;19.50;38.70;;;;;;8355666;28;19913;-55
2024/04/01 17:06:39;;;;;;;;;;;19.60;38.60;;;;;;8355484;28;19913;-55
2024/04/01 17:10:44;;;;;;;;;;;19.70;38.40;;;;;;8355237;28;20449;-56
2024/04/01 17:14:44;;;;;;;;;;;19.70;38.30;;;;;;8355752;27;19913;-54
2024/04/01 17:18:45;;;;;;;;;;;19.70;38.20;;;;;;8355024;27;20011;-55
2024/04/01 17:22:46;;;;;;;;;;;19.70;38.00;;;;;;8355336;28;20290;-55
2024/04/01 17:26:47;;;;;;;;;;;19.70;38.00;;;;;;8355128;28;19940;-55
2024/04/01 17:30:49;;;;;;;;;;;19.70;37.90;;;;;;8354852;28;20024;-53
2024/04/01 17:34:50;;;;;;;;;;;19.60;38.90;;;;;;8354784;28;19971;-55
2024/04/01 17:38:51;;;;;;;;;;;19.40;39.70;;;;;;8354635;28;19955;-54
2024/04/01 17:42:52;;;;;;;;;;;19.40;39.40;;;;;;8354378;28;19913;-55
2024/04/01 17:46:54;;;;;;;;;;;19.50;39.00;;;;;;8336942;28;19909;-54
2024/04/01 17:50:54;;;;;;;;;;;19.60;38.70;;;;;;8354271;28;19936;-54
2024/04/01 17:54:55;;;;;;;;;;;19.60;38.40;;;;;;8356949;28;19916;-54
2024/04/01 17:58:56;;;;;;;;;;;19.60;38.30;;;;;;8360115;28;19909;-55
2024/04/01 18:02:58;;;;;;;;;;;19.60;38.20;;;;;;8359676;28;20427;-53
2024/04/01 18:06:58;;;;;;;;;;;19.70;38.10;;;;;;8360135;28;19913;-54
2024/04/01 18:10:59;;;;;;;;;;;19.70;38.00;;;;;;8359764;28;20000;-53
2024/04/01 18:15:00;;;;;;;;;;;19.70;37.90;;;;;;8359400;27;19920;-55
2024/04/01 18:19:01;;;;;;;;;;;19.70;37.90;;;;;;8359766;28;20401;-55
2024/04/01 18:23:02;;;;;;;;;;;19.60;39.00;;;;;;8359490;28;20329;-54
2024/04/01 18:27:03;;;;;;;;;;;19.40;39.70;;;;;;8359208;28;19909;-54
2024/04/01 18:31:04;;;;;;;;;;;19.40;39.90;;;;;;8359556;28;19916;-53
2024/04/01 18:35:08;;;;;;;;;;;19.30;39.90;;;;;;8358864;28;20446;-54
2024/04/01 18:39:08;;;;;;;;;;;19.30;39.90;;;;;;8359095;28;20362;-55
2024/04/01 18:43:15;;;;;;;;;;;19.30;40.00;;;;;;8359299;27;20318;-53
2024/04/01 18:47:16;;;;;;;;;;;19.30;40.10;;;;;;8357539;28;19968;-53
2024/04/01 18:51:16;;;;;;;;;;;19.30;41.60;;;;;;8358961;28;19916;-54
2024/04/01 18:55:27;;;;;;;;;;;19.30;41.70;;;;;;8358641;28;19923;-54
2024/04/01 18:59:27;;;;;;;;;;;19.30;42.00;;;;;;8358551;28;20323;-54
2024/04/01 19:03:28;;;;;;;;;;;19.40;42.30;;;;;;8358506;28;20306;-53
2024/04/01 19:07:28;;;;;;;;;;;19.40;42.10;;;;;;8358301;28;19973;-55
2024/04/01 19:11:29;;;;;;;;;;;19.50;41.90;;;;;;8358250;27;19978;-56
2024/04/01 19:15:30;;;;;;;;;;;19.50;41.80;;;;;;8358037;28;19909;-57
2024/04/01 19:19:30;;;;;;;;;;;19.50;42.40;;;;;;8358072;28;20019;-56
2024/04/01 19:23:31;;;;;;;;;;;19.50;42.20;;;;;;8357972;28;19916;-57
2024/04/01 19:27:32;;;;;;;;;;;19.60;42.40;;;;;;8358840;28;20300;-53
2024/04/01 19:31:34;;;;;;;;;;;19.70;42.30;;;;;;8357898;28;19916;-57
2024/04/01 19:35:34;;;;;;;;;;;19.70;42.30;;;;;;8357648;28;19962;-57
2024/04/01 19:39:35;;;;;;;;;;;19.70;42.20;;;;;;8357700;28;19916;-52
2024/04/01 19:43:35;;;;;;;;;;;19.60;41.80;;;;;;8357402;27;19909;-54
2024/04/01 19:47:36;;;;;;;;;;;19.60;41.70;;;;;;8357453;28;19916;-51
2024/04/01 19:51:37;;;;;;;;;;;19.60;41.20;;;;;;8357351;28;19920;-54
2024/04/01 19:55:37;;;;;;;;;;;19.50;41.20;;;;;;8357226;28;19924;-58
2024/04/01 19:59:38;;;;;;;;;;;19.50;41.50;;;;;;8357103;28;19966;-53
2024/04/01 20:03:44;;;;;;;;;;;19.60;41.40;;;;;;8356996;28;19913;-54
2024/04/01 20:07:44;;;;;;;;;;;19.60;41.60;;;;;;8356813;28;19913;-54
2024/04/01 20:11:45;;;;;;;;;;;19.60;42.10;;;;;;8357686;27;20422;-56
2024/04/01 20:15:46;;;;;;;;;;;19.60;41.90;;;;;;8357453;28;19909;-57
2024/04/01 20:19:47;;;;;;;;;;;19.60;42.10;;;;;;8353781;28;19925;-55
2024/04/01 20:23:47;;;;;;;;;;;19.60;41.70;;;;;;8358553;28;19913;-57
2024/04/01 20:27:48;;;;;;;;;;;19.60;41.80;;;;;;8358466;28;20004;-58
2024/04/01 20:31:49;;;;;;;;;;;19.70;42.20;;;;;;8358723;28;19925;-57
2024/04/01 20:35:50;;;;;;;;;;;19.70;42.20;;;;;;8358262;28;19916;-57
2024/04/01 20:39:50;;;;;;;;;;;19.70;41.70;;;;;;8358353;28;19913;-58
2024/04/01 20:43:55;;;;;;;;;;;19.70;41.50;;;;;;8358163;27;20003;-59
2024/04/01 20:47:56;;;;;;;;;;;19.70;41.80;;;;;;8358157;28;19909;-58
2024/04/01 20:51:56;;;;;;;;;;;19.70;41.40;;;;;;8358058;28;20026;-57
2024/04/01 20:55:58;;;;;;;;;;;19.80;41.40;;;;;;8357750;28;19923;-57
2024/04/01 21:00:01;;;;;;;;;;;19.80;41.80;;;;;;8357956;28;19909;-56
2024/04/01 21:04:01;;;;;;;;;;;19.80;41.50;;;;;;8357738;28;19909;-58
2024/04/01 21:08:06;;;;;;;;;;;19.70;41.10;;;;;;8357660;28;19919;-58
2024/04/01 21:12:06;;;;;;;;;;;19.70;41.10;;;;;;8357352;27;20297;-58
2024/04/01 21:16:07;;;;;;;;;;;19.70;41.20;;;;;;8357448;28;20290;-55
2024/04/01 21:20:08;;;;;;;;;;;19.80;41.20;;;;;;8357203;28;19960;-55
2024/04/01 21:24:09;;;;;;;;;;;19.80;41.20;;;;;;8357340;28;19913;-52
2024/04/01 21:28:09;;;;;;;;;;;19.80;41.40;;;;;;8358342;28;20286;-53
2024/04/01 21:32:10;;;;;;;;;;;19.80;41.50;;;;;;8363352;28;19923;-50
2024/04/01 21:36:11;;;;;;;;;;;19.80;41.60;;;;;;8362961;28;19920;-52
2024/04/01 21:40:11;;;;;;;;;;;19.80;41.40;;;;;;8362819;28;19912;-49
2024/04/01 21:44:12;;;;;;;;;;;19.80;43.30;;;;;;8362902;27;19920;-53
2024/04/01 21:48:12;;;;;;;;;;;19.80;46.40;;;;;;8362679;28;19999;-53
2024/04/01 21:52:13;;;;;;;;;;;19.90;45.20;;;;;;8362620;28;19923;-54
2024/04/01 21:56:13;;;;;;;;;;;19.80;43.90;;;;;;8362713;28;20008;-54
2024/04/01 22:00:18;;;;;;;;;;;19.80;43.90;;;;;;8362525;28;19913;-53
2024/04/01 22:04:18;;;;;;;;;;;19.80;44.30;;;;;;8362351;28;20028;-55
2024/04/01 22:08:19;;;;;;;;;;;19.80;43.90;;;;;;8362220;28;19913;-56
2024/04/01 22:12:20;;;;;;;;;;;19.80;43.50;;;;;;8361972;27;19913;-49
2024/04/01 22:16:20;;;;;;;;;;;19.80;43.40;;;;;;8362119;28;19933;-53
2024/04/01 22:20:21;;;;;;;;;;;19.80;43.30;;;;;;8361673;28;19932;-51
2024/04/01 22:24:21;;;;;;;;;;;19.80;43.20;;;;;;8362097;27;20267;-52
2024/04/01 22:28:23;;;;;;;;;;;19.80;43.10;;;;;;8361648;28;20392;-49
2024/04/01 22:32:23;;;;;;;;;;;19.80;43.10;;;;;;8361481;28;19920;-50
2024/04/01 22:36:24;;;;;;;;;;;19.80;43.20;;;;;;8361461;28;19951;-54
2024/04/01 22:40:24;;;;;;;;;;;19.80;43.10;;;;;;8360917;28;19967;-58
2024/04/01 22:44:29;;;;;;;;;;;19.90;43.20;;;;;;8362984;27;20373;-54
2024/04/01 22:48:31;;;;;;;;;;;19.80;43.10;;;;;;8361119;28;19920;-56
2024/04/01 22:52:32;;;;;;;;;;;19.80;43.20;;;;;;8361230;28;19916;-56
2024/04/01 22:56:32;;;;;;;;;;;19.80;43.00;;;;;;8360903;28;19920;-57
2024/04/01 23:00:33;;;;;;;;;;;19.90;43.20;;;;;;8360724;28;19913;-54
2024/04/01 23:04:35;;;;;;;;;;;19.80;43.50;;;;;;8360753;28;19913;-55
2024/04/01 23:08:36;;;;;;;;;;;19.80;43.10;;;;;;8360467;28;20373;-55
2024/04/01 23:12:37;;;;;;;;;;;19.80;43.10;;;;;;8360376;28;20348;-53
2024/04/01 23:16:37;;;;;;;;;;;19.80;42.90;;;;;;8360478;28;19912;-57
2024/04/01 23:20:38;;;;;;;;;;;19.80;43.20;;;;;;8360252;27;19932;-55
2024/04/01 23:24:39;;;;;;;;;;;19.80;42.80;;;;;;8360223;28;20437;-56
2024/04/01 23:28:40;;;;;;;;;;;19.80;42.80;;;;;;8360086;28;19913;-57